createdAt,value
2022-08-01T00:01:35.865Z,64.30
2022-08-01T00:04:04.640Z,65.10
2022-08-01T00:06:33.476Z,65.90
2022-08-01T00:09:02.100Z,66.30
2022-08-01T00:11:30.594Z,67.20
2022-08-01T00:13:59.175Z,68.10
2022-08-01T00:16:29.287Z,68.80
2022-08-01T00:18:57.875Z,69.20
2022-08-01T00:21:26.556Z,69.80
2022-08-01T00:23:55.193Z,70.50
2022-08-01T00:26:23.682Z,71.20
2022-08-01T00:28:52.365Z,72.50
2022-08-01T00:31:21.279Z,72.50
2022-08-01T00:33:51.462Z,73.70
2022-08-01T00:36:19.928Z,73.80
2022-08-01T00:38:48.556Z,74.00
2022-08-01T00:41:17.195Z,75.10
2022-08-01T00:43:45.759Z,75.20
2022-08-01T00:46:14.215Z,76.00
2022-08-01T00:48:43.088Z,76.60
2022-08-01T00:51:13.724Z,77.30
2022-08-01T00:53:51.428Z,77.70
2022-08-01T00:56:22.547Z,78.40
2022-08-01T00:58:51.322Z,78.80
2022-08-01T01:01:21.690Z,79.50
2022-08-01T01:03:59.469Z,80.70
2022-08-01T01:06:42.365Z,81.70
2022-08-01T01:09:31.718Z,82.60
2022-08-01T01:12:08.893Z,82.80
2022-08-01T01:14:47.835Z,84.00
2022-08-01T01:17:49.519Z,84.70
2022-08-01T01:20:10.464Z,85.00
2022-08-01T01:22:53.098Z,86.20
2022-08-01T01:25:48.113Z,90.10
2022-08-01T01:28:22.905Z,88.60
2022-08-01T01:30:55.622Z,89.60
2022-08-01T01:33:26.240Z,90.20
2022-08-01T01:36:00.045Z,90.50
2022-08-01T01:38:31.480Z,91.00
2022-08-01T01:41:01.072Z,91.30
2022-08-01T01:43:33.493Z,91.40
2022-08-01T01:46:05.556Z,91.70
2022-08-01T01:48:36.045Z,92.10
2022-08-01T01:51:05.949Z,92.70
2022-08-01T01:53:37.265Z,93.00
2022-08-01T01:56:06.302Z,93.10
2022-08-01T01:58:38.743Z,93.30
2022-08-01T02:01:14.338Z,94.00
2022-08-01T02:03:45.595Z,94.30
2022-08-01T02:06:16.978Z,95.50
2022-08-01T02:08:47.647Z,96.20
2022-08-01T02:11:22.551Z,96.20
2022-08-01T02:13:56.077Z,97.10
2022-08-01T02:16:29.389Z,97.50
2022-08-01T02:18:58.431Z,97.70
2022-08-01T02:21:31.731Z,98.00
2022-08-01T02:24:11.069Z,98.20
2022-08-01T02:26:44.138Z,98.80
2022-08-01T02:29:18.169Z,99.30
2022-08-01T02:31:50.355Z,99.90
2022-08-01T02:34:21.287Z,99.90
2022-08-01T02:36:52.380Z,99.90
2022-08-01T02:39:23.448Z,99.90
2022-08-01T02:41:59.990Z,99.90
2022-08-01T02:44:33.351Z,99.90
2022-08-01T02:47:05.853Z,99.90
2022-08-01T02:49:37.602Z,99.90
2022-08-01T02:52:09.617Z,99.90
2022-08-01T02:54:39.556Z,99.90
2022-08-01T02:57:14.040Z,99.90
2022-08-01T02:59:44.978Z,99.90
2022-08-01T03:02:17.411Z,99.90
2022-08-01T03:04:47.023Z,99.90
2022-08-01T03:07:17.101Z,99.90
2022-08-01T03:09:49.953Z,99.90
2022-08-01T03:12:23.064Z,99.90
2022-08-01T03:14:54.357Z,99.90
2022-08-01T03:17:27.187Z,99.90
2022-08-01T03:19:56.293Z,99.90
2022-08-01T03:22:27.121Z,99.90
2022-08-01T03:24:56.356Z,99.90
2022-08-01T03:27:26.660Z,99.90
2022-08-01T03:29:58.135Z,99.90
2022-08-01T03:32:30.789Z,99.90
2022-08-01T03:34:59.599Z,99.90
2022-08-01T03:37:30.551Z,99.90
2022-08-01T03:40:04.535Z,99.90
2022-08-01T03:42:36.307Z,99.90
2022-08-01T03:45:13.485Z,99.90
2022-08-01T03:47:45.606Z,99.90
2022-08-01T03:50:15.743Z,99.90
2022-08-01T03:52:47.304Z,99.90
2022-08-01T03:55:18.015Z,99.90
2022-08-01T03:57:48.453Z,99.90
2022-08-01T04:00:19.614Z,99.90
2022-08-01T04:02:51.856Z,99.90
2022-08-01T04:05:20.809Z,99.90
2022-08-01T04:07:56.379Z,99.90
2022-08-01T04:10:25.368Z,99.90
2022-08-01T04:12:54.377Z,99.90
2022-08-01T04:15:23.407Z,99.90
2022-08-01T04:17:55.098Z,99.90
2022-08-01T04:20:24.332Z,99.90
2022-08-01T04:22:53.313Z,99.90
2022-08-01T04:25:26.523Z,99.90
2022-08-01T04:27:56.885Z,99.90
2022-08-01T04:30:29.313Z,99.90
2022-08-01T04:33:02.462Z,99.90
2022-08-01T04:36:02.777Z,99.90
2022-08-01T04:38:24.605Z,99.90
2022-08-01T04:40:54.423Z,99.90
2022-08-01T04:43:24.057Z,99.90
2022-08-01T04:45:53.775Z,99.90
2022-08-01T04:48:25.961Z,99.90
2022-08-01T04:50:55.171Z,99.90
2022-08-01T04:53:26.888Z,99.90
2022-08-01T04:55:55.423Z,99.90
2022-08-01T04:58:24.100Z,99.90
2022-08-01T05:00:52.721Z,99.90
2022-08-01T05:03:21.667Z,99.90
2022-08-01T05:05:51.498Z,99.90
2022-08-01T05:08:19.962Z,99.90
2022-08-01T05:10:48.509Z,99.90
2022-08-01T05:13:16.953Z,99.90
2022-08-01T05:15:45.372Z,99.90
2022-08-01T05:18:13.823Z,99.90
2022-08-01T05:20:43.787Z,99.90
2022-08-01T05:23:19.234Z,99.90
2022-08-01T05:26:02.119Z,99.90
2022-08-01T05:28:30.565Z,99.90
2022-08-01T05:30:59.095Z,99.90
2022-08-01T05:33:27.667Z,99.90
2022-08-01T05:35:56.361Z,99.90
2022-08-01T05:38:26.280Z,99.90
2022-08-01T05:40:54.713Z,99.90
2022-08-01T05:43:28.225Z,99.90
2022-08-01T05:45:57.730Z,99.90
2022-08-01T05:48:26.290Z,99.90
2022-08-01T05:50:58.664Z,99.90
2022-08-01T05:53:29.167Z,99.90
2022-08-01T05:55:58.052Z,99.90
2022-08-01T05:58:26.608Z,99.90
2022-08-01T06:00:55.193Z,99.90
2022-08-01T06:03:23.886Z,99.90
2022-08-01T06:05:53.530Z,99.90
2022-08-01T06:08:21.975Z,99.90
2022-08-01T06:10:51.942Z,99.90
2022-08-01T06:13:21.107Z,99.90
2022-08-01T06:15:50.199Z,99.90
2022-08-01T06:18:19.459Z,99.90
2022-08-01T06:20:48.002Z,99.90
2022-08-01T06:23:31.459Z,99.90
2022-08-01T06:26:02.875Z,99.90
2022-08-01T06:28:31.462Z,99.90
2022-08-01T06:31:00.856Z,99.90
2022-08-01T06:33:29.505Z,99.90
2022-08-01T06:35:58.141Z,99.90
2022-08-01T06:38:26.642Z,99.90
2022-08-01T06:40:55.139Z,99.90
2022-08-01T06:43:25.251Z,99.90
2022-08-01T06:45:53.681Z,99.90
2022-08-01T06:48:22.219Z,99.90
2022-08-01T06:51:08.939Z,99.90
2022-08-01T06:53:38.903Z,99.90
2022-08-01T06:56:09.757Z,99.90
2022-08-01T06:58:39.983Z,99.90
2022-08-01T07:01:09.173Z,99.90
2022-08-01T07:03:53.588Z,99.90
2022-08-01T07:06:25.284Z,99.90
2022-08-01T07:08:53.843Z,99.90
2022-08-01T07:11:22.712Z,99.90
2022-08-01T07:13:52.899Z,99.90
2022-08-01T07:16:21.452Z,99.90
2022-08-01T07:18:50.113Z,99.90
2022-08-01T07:21:39.188Z,99.90
2022-08-01T07:24:13.027Z,99.90
2022-08-01T07:26:54.067Z,99.90
2022-08-01T07:29:26.171Z,99.90
2022-08-01T07:31:55.855Z,99.90
2022-08-01T07:34:25.332Z,99.90
2022-08-01T07:36:55.107Z,99.90
2022-08-01T07:39:23.868Z,99.90
2022-08-01T07:42:05.790Z,99.90
2022-08-01T07:44:38.176Z,99.90
2022-08-01T07:47:07.754Z,99.90
2022-08-01T07:49:40.262Z,99.90
2022-08-01T07:52:10.039Z,99.90
2022-08-01T07:54:38.698Z,99.90
2022-08-01T07:57:07.279Z,99.90
2022-08-01T07:59:37.507Z,99.80
2022-08-01T08:02:06.447Z,99.60
2022-08-01T08:04:35.381Z,99.40
2022-08-01T08:07:04.320Z,99.10
2022-08-01T08:09:37.116Z,98.90
2022-08-01T08:12:08.640Z,99.00
2022-08-01T08:14:39.148Z,98.80
2022-08-01T08:17:08.453Z,99.10
2022-08-01T08:19:39.611Z,99.10
2022-08-01T08:22:09.919Z,99.10
2022-08-01T08:24:46.695Z,99.10
2022-08-01T08:27:16.345Z,99.00
2022-08-01T08:29:46.435Z,98.90
2022-08-01T08:32:15.147Z,98.70
2022-08-01T08:34:44.089Z,98.50
2022-08-01T08:37:13.914Z,98.30
2022-08-01T08:39:42.813Z,98.30
2022-08-01T08:42:12.469Z,98.30
2022-08-01T08:44:43.634Z,98.20
2022-08-01T08:47:20.107Z,98.20
2022-08-01T08:49:50.453Z,98.10
2022-08-01T08:52:21.123Z,98.10
2022-08-01T08:54:50.995Z,98.10
2022-08-01T08:57:22.328Z,97.70
2022-08-01T08:59:53.148Z,97.50
2022-08-01T09:02:23.413Z,97.30
2022-08-01T09:04:52.975Z,97.30
2022-08-01T09:07:21.697Z,97.20
2022-08-01T09:09:51.429Z,97.00
2022-08-01T09:12:21.484Z,96.90
2022-08-01T09:14:54.696Z,96.60
2022-08-01T09:17:24.640Z,96.50
2022-08-01T09:19:54.990Z,96.40
2022-08-01T09:22:24.615Z,96.00
2022-08-01T09:25:01.684Z,95.80
2022-08-01T09:27:31.848Z,96.20
2022-08-01T09:30:11.923Z,95.80
2022-08-01T09:35:43.958Z,95.60
2022-08-01T09:38:20.569Z,95.10
2022-08-01T09:40:55.060Z,94.70
2022-08-01T09:43:27.218Z,94.30
2022-08-01T09:45:58.035Z,94.00
2022-08-01T09:48:29.481Z,93.90
2022-08-01T09:51:09.385Z,94.10
2022-08-01T09:53:52.003Z,93.90
2022-08-01T09:56:23.220Z,93.50
2022-08-01T09:59:02.374Z,92.90
2022-08-01T10:01:44.985Z,92.20
2022-08-01T10:04:17.446Z,91.80
2022-08-01T10:06:53.790Z,91.50
2022-08-01T10:09:36.064Z,91.10
2022-08-01T10:12:15.059Z,90.60
2022-08-01T10:14:46.809Z,90.20
2022-08-01T10:17:20.531Z,89.40
2022-08-01T10:19:55.676Z,87.90
2022-08-01T10:22:32.659Z,85.80
2022-08-01T10:25:07.139Z,84.40
2022-08-01T10:27:39.791Z,82.40
2022-08-01T10:30:19.198Z,81.30
2022-08-01T10:32:54.978Z,80.00
2022-08-01T10:35:46.728Z,78.70
2022-08-01T10:38:16.551Z,77.40
2022-08-01T10:40:46.119Z,76.30
2022-08-01T10:43:21.318Z,76.50
2022-08-01T10:45:52.584Z,74.40
2022-08-01T10:48:26.710Z,72.80
2022-08-01T10:51:01.813Z,71.40
2022-08-01T10:53:42.659Z,70.60
2022-08-01T10:56:16.738Z,68.90
2022-08-01T10:58:48.889Z,68.20
2022-08-01T11:01:25.698Z,67.10
2022-08-01T11:04:12.612Z,65.90
2022-08-01T11:06:57.167Z,66.00
2022-08-01T11:09:42.413Z,66.60
2022-08-01T11:12:24.907Z,65.60
2022-08-01T11:15:31.279Z,66.00
2022-08-01T11:18:06.870Z,65.00
2022-08-01T11:20:41.914Z,64.40
2022-08-01T11:23:23.546Z,63.30
2022-08-01T11:26:12.205Z,60.80
2022-08-01T11:28:50.422Z,59.40
2022-08-01T11:31:37.681Z,57.70
2022-08-01T11:34:08.387Z,55.70
2022-08-01T11:39:28.196Z,55.00
2022-08-01T11:42:22.340Z,53.50
2022-08-01T11:44:52.838Z,48.80
2022-08-01T11:47:45.761Z,49.20
2022-08-01T11:50:33.581Z,47.20
2022-08-01T11:53:04.218Z,47.80
2022-08-01T11:55:36.054Z,48.30
2022-08-01T11:58:22.378Z,48.70
2022-08-01T12:00:57.824Z,50.80
2022-08-01T12:03:33.465Z,51.90
2022-08-01T12:06:03.538Z,53.20
2022-08-01T12:08:36.056Z,54.50
2022-08-01T12:11:07.507Z,51.80
2022-08-01T12:13:46.057Z,50.80
2022-08-01T12:16:15.542Z,48.20
2022-08-01T12:18:45.378Z,47.20
2022-08-01T12:21:14.162Z,44.10
2022-08-01T12:23:42.611Z,42.20
2022-08-01T12:26:28.433Z,40.80
2022-08-01T12:29:01.746Z,39.60
2022-08-01T12:31:34.830Z,37.00
2022-08-01T12:34:36.545Z,37.10
2022-08-01T12:37:05.828Z,38.50
2022-08-01T12:39:40.066Z,39.90
2022-08-01T12:42:11.670Z,39.00
2022-08-01T12:44:45.366Z,37.40
2022-08-01T12:47:14.742Z,36.60
2022-08-01T12:49:45.685Z,34.30
2022-08-01T12:52:15.103Z,32.90
2022-08-01T12:55:10.510Z,32.70
2022-08-01T12:57:41.500Z,30.60
2022-08-01T13:00:18.203Z,30.80
2022-08-01T13:02:48.110Z,30.20
2022-08-01T13:05:17.860Z,30.50
2022-08-01T13:07:48.934Z,31.60
2022-08-01T13:10:29.038Z,32.00
2022-08-01T13:13:00.081Z,32.90
2022-08-01T13:15:36.023Z,34.10
2022-08-01T13:18:27.666Z,34.90
2022-08-01T13:21:13.921Z,37.00
2022-08-01T13:24:03.639Z,35.00
2022-08-01T13:26:53.284Z,34.30
2022-08-01T13:29:24.149Z,33.20
2022-08-01T13:31:54.283Z,33.90
2022-08-01T13:34:32.192Z,34.80
2022-08-01T13:37:02.454Z,35.80
2022-08-01T13:39:45.754Z,36.80
2022-08-01T13:42:19.317Z,37.50
2022-08-01T13:44:48.185Z,38.10
2022-08-01T13:47:18.563Z,38.80
2022-08-01T13:50:01.939Z,38.90
2022-08-01T13:52:31.902Z,38.10
2022-08-01T13:55:00.939Z,37.70
2022-08-01T13:57:36.190Z,38.00
2022-08-01T14:00:08.416Z,38.30
2022-08-01T14:02:42.073Z,38.60
2022-08-01T14:05:11.067Z,39.50
2022-08-01T14:07:41.326Z,40.20
2022-08-01T14:10:19.936Z,41.10
2022-08-01T14:12:49.690Z,41.80
2022-08-01T14:15:38.172Z,42.20
2022-08-01T14:18:10.078Z,42.60
2022-08-01T14:20:41.401Z,43.30
2022-08-01T14:23:10.328Z,43.90
2022-08-01T14:26:00.761Z,44.00
2022-08-01T14:28:29.295Z,44.70
2022-08-01T14:30:58.772Z,45.30
2022-08-01T14:33:29.953Z,45.80
2022-08-01T14:36:05.363Z,45.70
2022-08-01T14:38:47.066Z,43.40
2022-08-01T14:41:15.816Z,40.60
2022-08-01T14:43:44.669Z,39.00
2022-08-01T14:46:14.016Z,38.10
2022-08-01T14:48:44.318Z,37.90
2022-08-01T14:51:13.013Z,37.80
2022-08-01T14:53:46.497Z,38.00
2022-08-01T14:56:15.927Z,38.30
2022-08-01T14:58:44.488Z,38.90
2022-08-01T15:01:13.242Z,39.50
2022-08-01T15:03:43.095Z,40.20
2022-08-01T15:06:12.590Z,39.80
2022-08-01T15:08:41.310Z,39.90
2022-08-01T15:11:09.827Z,39.60
2022-08-01T15:13:42.360Z,38.70
2022-08-01T15:16:12.060Z,38.40
2022-08-01T15:18:43.036Z,38.50
2022-08-01T15:21:29.325Z,39.10
2022-08-01T15:24:01.464Z,40.00
2022-08-01T15:26:30.824Z,40.90
2022-08-01T15:28:59.314Z,41.60
2022-08-01T15:31:27.791Z,42.00
2022-08-01T15:33:56.401Z,42.50
2022-08-01T15:36:26.593Z,42.50
2022-08-01T15:38:55.140Z,42.40
2022-08-01T15:41:23.573Z,42.50
2022-08-01T15:43:56.024Z,42.60
2022-08-01T15:46:25.638Z,42.50
2022-08-01T15:48:54.331Z,42.30
2022-08-01T15:51:23.345Z,42.20
2022-08-01T15:53:53.392Z,42.50
2022-08-01T15:56:21.929Z,43.20
2022-08-01T15:58:50.510Z,44.00
2022-08-01T16:01:19.459Z,44.70
2022-08-01T16:03:48.004Z,45.30
2022-08-01T16:06:16.584Z,45.40
2022-08-01T16:08:45.333Z,45.50
2022-08-01T16:11:16.370Z,45.80
2022-08-01T16:13:45.725Z,45.90
2022-08-01T16:16:15.513Z,45.70
2022-08-01T16:18:44.531Z,45.80
2022-08-01T16:21:13.561Z,45.80
2022-08-01T16:23:43.014Z,46.20
2022-08-01T16:26:13.456Z,45.40
2022-08-01T16:28:58.257Z,45.40
2022-08-01T16:31:43.741Z,45.80
2022-08-01T16:34:15.748Z,46.20
2022-08-01T16:36:44.423Z,46.70
2022-08-01T16:39:13.533Z,47.10
2022-08-01T16:41:42.400Z,47.70
2022-08-01T16:44:12.400Z,48.10
2022-08-01T16:46:41.199Z,48.30
2022-08-01T16:49:11.017Z,48.90
2022-08-01T16:51:47.720Z,49.00
2022-08-01T16:54:24.988Z,49.20
2022-08-01T16:56:56.149Z,49.50
2022-08-01T16:59:28.414Z,50.10
2022-08-01T17:02:01.214Z,50.40
2022-08-01T17:04:30.879Z,50.30
2022-08-01T17:06:59.823Z,50.60
2022-08-01T17:09:28.395Z,50.70
2022-08-01T17:11:57.098Z,51.10
2022-08-01T17:14:28.703Z,51.70
2022-08-01T17:16:57.355Z,51.80
2022-08-01T17:19:26.915Z,52.50
2022-08-01T17:22:02.025Z,52.70
2022-08-01T17:24:30.970Z,53.00
2022-08-01T17:26:59.580Z,54.00
2022-08-01T17:29:29.530Z,54.60
2022-08-01T17:32:12.841Z,54.70
2022-08-01T17:34:41.479Z,54.80
2022-08-01T17:37:10.758Z,55.40
2022-08-01T17:39:40.218Z,56.30
2022-08-01T17:42:09.626Z,56.30
2022-08-01T17:44:41.598Z,56.20
2022-08-01T17:47:10.886Z,56.90
2022-08-01T17:49:54.460Z,57.50
2022-08-01T17:52:26.062Z,58.10
2022-08-01T17:54:58.936Z,58.50
2022-08-01T17:57:28.664Z,58.80
2022-08-01T17:59:59.148Z,59.10
2022-08-01T18:02:27.637Z,59.30
2022-08-01T18:04:56.377Z,59.40
2022-08-01T18:08:01.197Z,59.70
2022-08-01T18:10:14.190Z,59.60
2022-08-01T18:12:45.425Z,59.40
2022-08-01T18:15:16.693Z,59.50
2022-08-01T18:17:45.589Z,60.50
2022-08-01T18:20:14.086Z,61.20
2022-08-01T18:22:42.710Z,61.50
2022-08-01T18:25:11.508Z,62.30
2022-08-01T18:28:16.477Z,63.10
2022-08-01T18:30:30.454Z,63.30
2022-08-01T18:32:59.606Z,63.90
2022-08-01T18:35:31.763Z,64.70
2022-08-01T18:38:17.735Z,65.40
2022-08-01T18:40:48.007Z,66.00
2022-08-01T18:43:16.777Z,66.70
2022-08-01T18:45:47.331Z,66.90
2022-08-01T18:48:15.835Z,67.40
2022-08-01T18:50:44.543Z,68.20
2022-08-01T18:53:15.015Z,67.90
2022-08-01T18:55:44.023Z,67.80
2022-08-01T18:58:12.798Z,67.30
2022-08-01T19:00:42.302Z,66.90
2022-08-01T19:03:13.786Z,66.80
2022-08-01T19:05:42.690Z,66.50
2022-08-01T19:08:11.725Z,66.40
2022-08-01T19:10:41.431Z,66.30
2022-08-01T19:13:10.541Z,66.40
2022-08-01T19:15:39.444Z,67.40
2022-08-01T19:18:09.540Z,67.40
2022-08-01T19:20:42.877Z,67.90
2022-08-01T19:23:25.437Z,68.40
2022-08-01T19:25:58.370Z,68.70
2022-08-01T19:28:28.950Z,69.30
2022-08-01T19:31:00.353Z,68.70
2022-08-01T19:33:31.361Z,69.30
2022-08-01T19:36:02.495Z,69.10
2022-08-01T19:38:32.603Z,69.80
2022-08-01T19:41:03.657Z,69.20
2022-08-01T19:43:36.749Z,68.90
2022-08-01T19:46:08.173Z,69.40
2022-08-01T19:48:53.698Z,72.50
2022-08-01T19:51:32.813Z,76.00
2022-08-01T19:54:06.639Z,80.80
2022-08-01T19:56:40.458Z,81.40
2022-08-01T19:59:09.874Z,83.10
2022-08-01T20:01:39.008Z,84.20
2022-08-01T20:04:08.693Z,85.80
2022-08-01T20:06:38.837Z,87.50
2022-08-01T20:09:08.514Z,88.50
2022-08-01T20:11:37.927Z,89.80
2022-08-01T20:14:06.697Z,90.60
2022-08-01T20:16:36.334Z,91.60
2022-08-01T20:19:06.488Z,92.40
2022-08-01T20:21:36.654Z,93.70
2022-08-01T20:24:11.807Z,94.20
2022-08-01T20:26:41.816Z,94.80
2022-08-01T20:29:13.022Z,95.60
2022-08-01T20:31:44.259Z,96.20
2022-08-01T20:34:16.019Z,96.80
2022-08-01T20:36:54.430Z,97.20
2022-08-01T20:39:28.616Z,97.80
2022-08-01T20:42:00.203Z,98.50
2022-08-01T20:44:32.552Z,99.50
2022-08-01T20:47:05.026Z,99.90
2022-08-01T20:49:34.324Z,99.90
2022-08-01T20:52:11.331Z,99.90
2022-08-01T20:54:43.175Z,99.90
2022-08-01T20:57:17.123Z,99.90
2022-08-01T20:59:55.734Z,99.90
2022-08-01T21:02:37.900Z,99.90
2022-08-01T21:05:11.077Z,99.90
2022-08-01T21:07:43.821Z,99.90
2022-08-01T21:10:16.613Z,99.90
2022-08-01T21:12:49.643Z,99.90
2022-08-01T21:15:28.365Z,99.90
2022-08-01T21:18:02.553Z,99.90
2022-08-01T21:20:33.271Z,99.90
2022-08-01T21:23:11.424Z,99.90
2022-08-01T21:25:43.991Z,99.90
2022-08-01T21:28:15.837Z,99.90
2022-08-01T21:30:55.765Z,99.90
2022-08-01T21:33:27.461Z,99.90
2022-08-01T21:36:00.180Z,99.90
2022-08-01T21:38:35.569Z,99.90
2022-08-01T21:41:08.043Z,99.90
2022-08-01T21:43:38.985Z,99.90
2022-08-01T21:46:08.115Z,99.90
2022-08-01T21:48:38.723Z,99.90
2022-08-01T21:51:16.956Z,99.90
2022-08-01T21:53:50.439Z,99.90
2022-08-01T21:56:28.298Z,99.90
2022-08-01T21:59:10.248Z,99.90
2022-08-01T22:01:52.136Z,99.90
2022-08-01T22:04:27.109Z,99.90
2022-08-01T22:06:56.938Z,99.90
2022-08-01T22:09:25.593Z,99.90
2022-08-01T22:11:59.464Z,99.90
2022-08-01T22:14:33.565Z,99.90
2022-08-01T22:17:03.040Z,99.90
2022-08-01T22:19:43.952Z,99.90
2022-08-01T22:22:44.614Z,99.90
2022-08-01T22:25:04.307Z,99.90
2022-08-01T22:28:06.691Z,99.90
2022-08-01T22:30:23.728Z,99.90
2022-08-01T22:33:07.158Z,99.90
2022-08-01T22:35:46.703Z,99.90
2022-08-01T22:38:15.514Z,99.90
2022-08-01T22:40:50.297Z,99.90
2022-08-01T22:43:29.560Z,99.90
2022-08-01T22:46:11.278Z,99.90
2022-08-01T22:48:46.576Z,99.90
2022-08-01T22:51:27.353Z,99.90
2022-08-01T22:54:03.124Z,99.90
2022-08-01T22:56:37.283Z,99.90
2022-08-01T22:59:13.676Z,99.90
2022-08-01T23:01:47.693Z,99.90
2022-08-01T23:04:27.621Z,99.90
2022-08-01T23:07:06.413Z,99.90
2022-08-01T23:09:48.118Z,99.90
2022-08-01T23:12:25.403Z,99.90
2022-08-01T23:14:58.126Z,99.90
2022-08-01T23:17:29.412Z,99.90
2022-08-01T23:19:59.722Z,99.90
2022-08-01T23:22:31.284Z,99.90
2022-08-01T23:25:05.232Z,99.90
2022-08-01T23:27:51.717Z,99.90
2022-08-01T23:30:28.588Z,99.90
2022-08-01T23:32:57.395Z,99.90
2022-08-01T23:35:26.647Z,99.90
2022-08-01T23:38:02.044Z,99.90
2022-08-01T23:40:31.923Z,99.90
2022-08-01T23:43:01.627Z,99.90
2022-08-01T23:45:58.484Z,99.90
2022-08-01T23:48:20.531Z,99.90
2022-08-01T23:50:49.119Z,99.90
2022-08-01T23:53:17.600Z,99.90
2022-08-01T23:55:47.521Z,99.90
2022-08-01T23:58:16.882Z,99.90
